Centerville, Idaho
Current Conditions -  °F | °C
As of 5:53 AM on Sunday 21 Dec 2014 (Local Time) from KBOI Reporting Station
Overcast Overcast  
Wind Chill: 37°   Ceiling: 4700
Heat Index: 42°   Visibility: 10mi
Dew Point: 39°   Wind: 9mph
Humidity: 89%   Direction: 110°ESE
Pressure: 29.81"   Gusts: NA
Location:  43.8008°N, 115.834°W
Report Text: KBOI 211253Z 11008KT 10SM BKN047 OVC100 06/04 A2981 RMK AO2 RAB01E10 SLP100 P0000 T00560039
Loading
Personal Weather Stations






























Interactive Weather Map New forecast layout! Learn more

10-Day Weather Forecast

Advertisements
Track Severe Weather on mobile